sensor_id;sensor_type;location;lat;lon;timestamp;P1;durP1;ratioP1;P2;durP2;ratioP2
27201;SDS011;14717;46.924;15.474;2024-02-15T00:00:09;10.80;;;5.07;;
27201;SDS011;14717;46.924;15.474;2024-02-15T00:02:35;8.30;;;4.88;;
27201;SDS011;14717;46.924;15.474;2024-02-15T00:05:01;9.35;;;4.78;;
27201;SDS011;14717;46.924;15.474;2024-02-15T00:07:26;10.38;;;4.88;;
27201;SDS011;14717;46.924;15.474;2024-02-15T00:09:51;8.23;;;4.72;;
27201;SDS011;14717;46.924;15.474;2024-02-15T00:12:18;9.70;;;4.80;;
27201;SDS011;14717;46.924;15.474;2024-02-15T00:14:44;7.22;;;4.20;;
27201;SDS011;14717;46.924;15.474;2024-02-15T00:17:09;11.85;;;5.10;;
27201;SDS011;14717;46.924;15.474;2024-02-15T00:19:36;9.35;;;4.25;;
27201;SDS011;14717;46.924;15.474;2024-02-15T00:22:03;8.77;;;4.70;;
27201;SDS011;14717;46.924;15.474;2024-02-15T00:24:29;10.95;;;4.68;;
27201;SDS011;14717;46.924;15.474;2024-02-15T00:26:56;10.50;;;4.90;;
27201;SDS011;14717;46.924;15.474;2024-02-15T00:29:21;9.68;;;4.63;;
27201;SDS011;14717;46.924;15.474;2024-02-15T00:31:47;8.15;;;4.57;;
27201;SDS011;14717;46.924;15.474;2024-02-15T00:34:12;8.80;;;4.50;;
27201;SDS011;14717;46.924;15.474;2024-02-15T00:36:38;9.13;;;4.78;;
27201;SDS011;14717;46.924;15.474;2024-02-15T00:39:06;9.80;;;4.38;;
27201;SDS011;14717;46.924;15.474;2024-02-15T00:41:33;11.00;;;5.53;;
27201;SDS011;14717;46.924;15.474;2024-02-15T00:43:59;9.13;;;4.68;;
27201;SDS011;14717;46.924;15.474;2024-02-15T00:46:24;10.88;;;4.68;;
27201;SDS011;14717;46.924;15.474;2024-02-15T00:48:54;12.10;;;5.20;;
27201;SDS011;14717;46.924;15.474;2024-02-15T00:51:19;8.73;;;4.25;;
27201;SDS011;14717;46.924;15.474;2024-02-15T00:53:45;9.82;;;4.50;;
27201;SDS011;14717;46.924;15.474;2024-02-15T00:56:10;9.40;;;4.70;;
27201;SDS011;14717;46.924;15.474;2024-02-15T00:58:36;9.48;;;4.55;;
27201;SDS011;14717;46.924;15.474;2024-02-15T01:01:01;12.00;;;5.30;;
27201;SDS011;14717;46.924;15.474;2024-02-15T01:03:27;9.32;;;4.70;;
27201;SDS011;14717;46.924;15.474;2024-02-15T01:05:52;8.88;;;4.18;;
27201;SDS011;14717;46.924;15.474;2024-02-15T01:08:17;10.63;;;4.75;;
27201;SDS011;14717;46.924;15.474;2024-02-15T01:10:43;8.27;;;4.10;;
27201;SDS011;14717;46.924;15.474;2024-02-15T01:13:08;9.15;;;4.43;;
27201;SDS011;14717;46.924;15.474;2024-02-15T01:15:34;9.10;;;4.78;;
27201;SDS011;14717;46.924;15.474;2024-02-15T01:18:02;9.43;;;4.50;;
27201;SDS011;14717;46.924;15.474;2024-02-15T01:20:28;12.20;;;4.40;;
27201;SDS011;14717;46.924;15.474;2024-02-15T01:22:53;12.10;;;4.97;;
27201;SDS011;14717;46.924;15.474;2024-02-15T01:25:18;14.20;;;4.75;;
27201;SDS011;14717;46.924;15.474;2024-02-15T01:27:45;9.77;;;4.80;;
27201;SDS011;14717;46.924;15.474;2024-02-15T01:30:10;7.07;;;4.25;;
27201;SDS011;14717;46.924;15.474;2024-02-15T01:32:36;11.82;;;4.80;;
27201;SDS011;14717;46.924;15.474;2024-02-15T01:35:02;8.27;;;4.38;;
27201;SDS011;14717;46.924;15.474;2024-02-15T01:37:27;8.18;;;4.30;;
27201;SDS011;14717;46.924;15.474;2024-02-15T01:39:53;7.68;;;3.92;;
27201;SDS011;14717;46.924;15.474;2024-02-15T01:42:18;8.52;;;4.72;;
27201;SDS011;14717;46.924;15.474;2024-02-15T01:44:44;8.02;;;3.95;;
27201;SDS011;14717;46.924;15.474;2024-02-15T01:47:10;7.50;;;3.83;;
27201;SDS011;14717;46.924;15.474;2024-02-15T01:49:36;9.70;;;4.60;;
27201;SDS011;14717;46.924;15.474;2024-02-15T01:52:02;10.70;;;5.32;;
27201;SDS011;14717;46.924;15.474;2024-02-15T01:54:29;8.57;;;4.53;;
27201;SDS011;14717;46.924;15.474;2024-02-15T01:56:56;9.63;;;4.90;;
27201;SDS011;14717;46.924;15.474;2024-02-15T01:59:23;10.77;;;5.13;;
27201;SDS011;14717;46.924;15.474;2024-02-15T02:01:50;10.43;;;4.72;;
27201;SDS011;14717;46.924;15.474;2024-02-15T02:04:16;9.48;;;4.97;;
27201;SDS011;14717;46.924;15.474;2024-02-15T02:06:41;13.00;;;4.88;;
27201;SDS011;14717;46.924;15.474;2024-02-15T02:09:13;10.43;;;4.60;;
27201;SDS011;14717;46.924;15.474;2024-02-15T02:11:39;11.23;;;4.55;;
27201;SDS011;14717;46.924;15.474;2024-02-15T02:14:06;11.20;;;4.45;;
27201;SDS011;14717;46.924;15.474;2024-02-15T02:16:31;7.53;;;4.82;;
27201;SDS011;14717;46.924;15.474;2024-02-15T02:19:00;8.98;;;4.78;;
27201;SDS011;14717;46.924;15.474;2024-02-15T02:21:26;8.10;;;4.45;;
27201;SDS011;14717;46.924;15.474;2024-02-15T02:23:52;9.90;;;4.90;;
27201;SDS011;14717;46.924;15.474;2024-02-15T02:26:20;9.45;;;4.43;;
27201;SDS011;14717;46.924;15.474;2024-02-15T02:28:47;9.23;;;4.35;;
27201;SDS011;14717;46.924;15.474;2024-02-15T02:31:13;9.68;;;4.90;;
27201;SDS011;14717;46.924;15.474;2024-02-15T02:33:39;9.23;;;4.88;;
27201;SDS011;14717;46.924;15.474;2024-02-15T02:36:05;7.93;;;4.60;;
27201;SDS011;14717;46.924;15.474;2024-02-15T02:38:34;10.10;;;4.93;;
27201;SDS011;14717;46.924;15.474;2024-02-15T02:41:02;11.98;;;4.85;;
27201;SDS011;14717;46.924;15.474;2024-02-15T02:43:31;10.40;;;5.00;;
27201;SDS011;14717;46.924;15.474;2024-02-15T02:45:56;7.78;;;4.57;;
27201;SDS011;14717;46.924;15.474;2024-02-15T02:48:22;7.80;;;4.78;;
27201;SDS011;14717;46.924;15.474;2024-02-15T02:50:48;9.38;;;4.40;;
27201;SDS011;14717;46.924;15.474;2024-02-15T02:53:14;9.10;;;4.97;;
27201;SDS011;14717;46.924;15.474;2024-02-15T02:55:43;7.95;;;4.32;;
27201;SDS011;14717;46.924;15.474;2024-02-15T02:58:08;12.27;;;5.35;;
27201;SDS011;14717;46.924;15.474;2024-02-15T03:00:34;9.38;;;4.63;;
27201;SDS011;14717;46.924;15.474;2024-02-15T03:02:59;9.88;;;5.03;;
27201;SDS011;14717;46.924;15.474;2024-02-15T03:05:25;11.77;;;4.72;;
27201;SDS011;14717;46.924;15.474;2024-02-15T03:07:51;11.35;;;4.85;;
27201;SDS011;14717;46.924;15.474;2024-02-15T03:10:17;9.85;;;4.32;;
27201;SDS011;14717;46.924;15.474;2024-02-15T03:12:43;8.27;;;4.65;;
27201;SDS011;14717;46.924;15.474;2024-02-15T03:15:12;8.90;;;4.30;;
27201;SDS011;14717;46.924;15.474;2024-02-15T03:17:41;7.25;;;4.05;;
27201;SDS011;14717;46.924;15.474;2024-02-15T03:20:08;10.02;;;5.30;;
27201;SDS011;14717;46.924;15.474;2024-02-15T03:22:49;10.38;;;4.80;;
27201;SDS011;14717;46.924;15.474;2024-02-15T03:25:19;9.05;;;5.05;;
27201;SDS011;14717;46.924;15.474;2024-02-15T03:27:44;10.85;;;4.57;;
27201;SDS011;14717;46.924;15.474;2024-02-15T03:30:10;13.40;;;5.32;;
27201;SDS011;14717;46.924;15.474;2024-02-15T03:32:36;10.25;;;5.30;;
27201;SDS011;14717;46.924;15.474;2024-02-15T03:35:02;8.75;;;4.60;;
27201;SDS011;14717;46.924;15.474;2024-02-15T03:37:27;10.63;;;5.30;;
27201;SDS011;14717;46.924;15.474;2024-02-15T03:39:53;11.07;;;5.32;;
27201;SDS011;14717;46.924;15.474;2024-02-15T03:42:19;13.57;;;5.63;;
27201;SDS011;14717;46.924;15.474;2024-02-15T03:44:45;10.52;;;4.82;;
27201;SDS011;14717;46.924;15.474;2024-02-15T03:47:12;8.77;;;4.88;;
27201;SDS011;14717;46.924;15.474;2024-02-15T03:49:39;8.75;;;4.75;;
27201;SDS011;14717;46.924;15.474;2024-02-15T03:52:07;9.70;;;4.53;;
27201;SDS011;14717;46.924;15.474;2024-02-15T03:54:35;10.18;;;4.65;;
27201;SDS011;14717;46.924;15.474;2024-02-15T03:57:00;7.93;;;4.13;;
27201;SDS011;14717;46.924;15.474;2024-02-15T03:59:26;7.07;;;4.20;;
27201;SDS011;14717;46.924;15.474;2024-02-15T04:01:55;8.50;;;4.25;;
27201;SDS011;14717;46.924;15.474;2024-02-15T04:04:22;9.55;;;4.38;;
27201;SDS011;14717;46.924;15.474;2024-02-15T04:06:48;6.90;;;4.05;;
27201;SDS011;14717;46.924;15.474;2024-02-15T04:09:14;9.98;;;4.30;;
27201;SDS011;14717;46.924;15.474;2024-02-15T04:11:39;7.97;;;3.88;;
27201;SDS011;14717;46.924;15.474;2024-02-15T04:14:05;11.50;;;3.70;;
27201;SDS011;14717;46.924;15.474;2024-02-15T04:16:30;7.43;;;3.85;;
27201;SDS011;14717;46.924;15.474;2024-02-15T04:18:58;7.32;;;3.58;;
27201;SDS011;14717;46.924;15.474;2024-02-15T04:21:23;9.50;;;4.05;;
27201;SDS011;14717;46.924;15.474;2024-02-15T04:23:49;8.07;;;3.80;;
27201;SDS011;14717;46.924;15.474;2024-02-15T04:26:16;7.93;;;3.85;;
27201;SDS011;14717;46.924;15.474;2024-02-15T04:28:42;9.27;;;3.80;;
27201;SDS011;14717;46.924;15.474;2024-02-15T04:31:07;6.45;;;3.20;;
27201;SDS011;14717;46.924;15.474;2024-02-15T04:33:34;8.45;;;4.28;;
27201;SDS011;14717;46.924;15.474;2024-02-15T04:35:59;9.27;;;3.75;;
27201;SDS011;14717;46.924;15.474;2024-02-15T04:38:27;7.60;;;3.85;;
27201;SDS011;14717;46.924;15.474;2024-02-15T04:40:53;7.28;;;3.90;;
27201;SDS011;14717;46.924;15.474;2024-02-15T04:43:19;7.90;;;3.55;;
27201;SDS011;14717;46.924;15.474;2024-02-15T04:45:45;6.85;;;3.58;;
27201;SDS011;14717;46.924;15.474;2024-02-15T04:48:11;8.98;;;4.10;;
27201;SDS011;14717;46.924;15.474;2024-02-15T04:50:39;6.25;;;3.60;;
27201;SDS011;14717;46.924;15.474;2024-02-15T04:53:07;8.30;;;3.65;;
27201;SDS011;14717;46.924;15.474;2024-02-15T04:55:33;11.38;;;4.30;;
27201;SDS011;14717;46.924;15.474;2024-02-15T04:57:58;8.50;;;4.20;;
27201;SDS011;14717;46.924;15.474;2024-02-15T05:00:25;8.10;;;4.28;;
27201;SDS011;14717;46.924;15.474;2024-02-15T05:02:50;8.82;;;4.50;;
27201;SDS011;14717;46.924;15.474;2024-02-15T05:05:16;7.53;;;4.20;;
27201;SDS011;14717;46.924;15.474;2024-02-15T05:07:42;11.10;;;4.53;;
27201;SDS011;14717;46.924;15.474;2024-02-15T05:10:08;7.38;;;4.10;;
27201;SDS011;14717;46.924;15.474;2024-02-15T05:12:34;5.78;;;4.03;;
27201;SDS011;14717;46.924;15.474;2024-02-15T05:15:00;11.80;;;4.55;;
27201;SDS011;14717;46.924;15.474;2024-02-15T05:17:27;9.60;;;4.03;;
27201;SDS011;14717;46.924;15.474;2024-02-15T05:19:54;8.20;;;4.50;;
27201;SDS011;14717;46.924;15.474;2024-02-15T05:22:24;8.18;;;3.92;;
27201;SDS011;14717;46.924;15.474;2024-02-15T05:24:52;8.63;;;4.43;;
27201;SDS011;14717;46.924;15.474;2024-02-15T05:27:19;9.00;;;4.78;;
27201;SDS011;14717;46.924;15.474;2024-02-15T05:29:44;9.27;;;5.00;;
27201;SDS011;14717;46.924;15.474;2024-02-15T05:32:10;10.80;;;5.15;;
27201;SDS011;14717;46.924;15.474;2024-02-15T05:34:36;10.50;;;4.50;;
27201;SDS011;14717;46.924;15.474;2024-02-15T05:37:04;10.80;;;5.28;;
27201;SDS011;14717;46.924;15.474;2024-02-15T05:39:31;11.05;;;4.60;;
27201;SDS011;14717;46.924;15.474;2024-02-15T05:41:57;11.75;;;5.07;;
27201;SDS011;14717;46.924;15.474;2024-02-15T05:44:25;9.30;;;4.53;;
27201;SDS011;14717;46.924;15.474;2024-02-15T05:46:51;9.98;;;5.25;;
27201;SDS011;14717;46.924;15.474;2024-02-15T05:49:16;10.05;;;4.43;;
27201;SDS011;14717;46.924;15.474;2024-02-15T05:51:42;9.05;;;4.53;;
27201;SDS011;14717;46.924;15.474;2024-02-15T05:54:08;10.23;;;4.75;;
27201;SDS011;14717;46.924;15.474;2024-02-15T05:56:34;6.70;;;3.78;;
27201;SDS011;14717;46.924;15.474;2024-02-15T05:58:59;10.95;;;4.60;;
27201;SDS011;14717;46.924;15.474;2024-02-15T06:01:27;6.75;;;4.25;;
27201;SDS011;14717;46.924;15.474;2024-02-15T06:03:54;9.95;;;4.15;;
27201;SDS011;14717;46.924;15.474;2024-02-15T06:06:20;11.27;;;5.55;;
27201;SDS011;14717;46.924;15.474;2024-02-15T06:08:46;11.43;;;5.38;;
27201;SDS011;14717;46.924;15.474;2024-02-15T06:11:13;10.82;;;5.40;;
27201;SDS011;14717;46.924;15.474;2024-02-15T06:13:45;12.48;;;5.25;;
27201;SDS011;14717;46.924;15.474;2024-02-15T06:16:11;11.65;;;5.30;;
27201;SDS011;14717;46.924;15.474;2024-02-15T06:18:36;11.30;;;6.20;;
27201;SDS011;14717;46.924;15.474;2024-02-15T06:21:02;8.48;;;5.00;;
27201;SDS011;14717;46.924;15.474;2024-02-15T06:23:28;9.50;;;4.70;;
27201;SDS011;14717;46.924;15.474;2024-02-15T06:25:54;10.27;;;4.53;;
27201;SDS011;14717;46.924;15.474;2024-02-15T06:28:24;7.55;;;4.07;;
27201;SDS011;14717;46.924;15.474;2024-02-15T06:31:08;15.63;;;5.00;;
27201;SDS011;14717;46.924;15.474;2024-02-15T06:33:54;8.55;;;5.03;;
27201;SDS011;14717;46.924;15.474;2024-02-15T06:36:48;13.70;;;4.93;;
27201;SDS011;14717;46.924;15.474;2024-02-15T06:39:33;8.23;;;4.70;;
27201;SDS011;14717;46.924;15.474;2024-02-15T06:42:08;11.18;;;5.13;;
27201;SDS011;14717;46.924;15.474;2024-02-15T06:47:06;10.45;;;5.20;;
27201;SDS011;14717;46.924;15.474;2024-02-15T06:49:32;11.93;;;5.22;;
27201;SDS011;14717;46.924;15.474;2024-02-15T06:52:00;12.38;;;6.20;;
27201;SDS011;14717;46.924;15.474;2024-02-15T06:56:53;10.15;;;5.82;;
27201;SDS011;14717;46.924;15.474;2024-02-15T06:59:19;11.48;;;5.60;;
27201;SDS011;14717;46.924;15.474;2024-02-15T07:01:47;14.00;;;6.10;;
27201;SDS011;14717;46.924;15.474;2024-02-15T07:04:14;12.80;;;5.65;;
27201;SDS011;14717;46.924;15.474;2024-02-15T07:06:39;13.57;;;5.38;;
27201;SDS011;14717;46.924;15.474;2024-02-15T07:09:05;12.68;;;5.40;;
27201;SDS011;14717;46.924;15.474;2024-02-15T07:11:32;11.18;;;5.88;;
27201;SDS011;14717;46.924;15.474;2024-02-15T07:13:59;11.68;;;5.93;;
27201;SDS011;14717;46.924;15.474;2024-02-15T07:16:24;12.75;;;5.60;;
27201;SDS011;14717;46.924;15.474;2024-02-15T07:18:50;10.52;;;5.13;;
27201;SDS011;14717;46.924;15.474;2024-02-15T07:21:15;9.85;;;5.43;;
27201;SDS011;14717;46.924;15.474;2024-02-15T07:23:44;13.00;;;5.18;;
27201;SDS011;14717;46.924;15.474;2024-02-15T07:26:09;9.55;;;5.13;;
27201;SDS011;14717;46.924;15.474;2024-02-15T07:28:37;12.00;;;4.90;;
27201;SDS011;14717;46.924;15.474;2024-02-15T07:31:03;9.40;;;5.07;;
27201;SDS011;14717;46.924;15.474;2024-02-15T07:33:28;9.20;;;5.10;;
27201;SDS011;14717;46.924;15.474;2024-02-15T07:35:54;12.65;;;5.82;;
27201;SDS011;14717;46.924;15.474;2024-02-15T07:38:21;12.45;;;5.90;;
27201;SDS011;14717;46.924;15.474;2024-02-15T07:40:48;12.38;;;5.80;;
27201;SDS011;14717;46.924;15.474;2024-02-15T07:43:14;11.80;;;5.30;;
27201;SDS011;14717;46.924;15.474;2024-02-15T07:45:39;9.00;;;4.78;;
27201;SDS011;14717;46.924;15.474;2024-02-15T07:48:04;8.90;;;4.57;;
27201;SDS011;14717;46.924;15.474;2024-02-15T07:50:30;13.57;;;5.78;;
27201;SDS011;14717;46.924;15.474;2024-02-15T07:52:56;18.15;;;5.68;;
27201;SDS011;14717;46.924;15.474;2024-02-15T07:55:22;7.03;;;4.40;;
27201;SDS011;14717;46.924;15.474;2024-02-15T07:57:49;13.80;;;5.40;;
27201;SDS011;14717;46.924;15.474;2024-02-15T08:00:15;10.75;;;5.90;;
27201;SDS011;14717;46.924;15.474;2024-02-15T08:02:41;13.60;;;5.25;;
27201;SDS011;14717;46.924;15.474;2024-02-15T08:05:09;11.25;;;5.18;;
27201;SDS011;14717;46.924;15.474;2024-02-15T08:07:37;9.50;;;5.03;;
27201;SDS011;14717;46.924;15.474;2024-02-15T08:10:07;8.98;;;5.25;;
27201;SDS011;14717;46.924;15.474;2024-02-15T08:12:46;9.07;;;4.85;;
27201;SDS011;14717;46.924;15.474;2024-02-15T08:15:17;11.10;;;4.38;;
27201;SDS011;14717;46.924;15.474;2024-02-15T08:17:43;8.77;;;4.55;;
27201;SDS011;14717;46.924;15.474;2024-02-15T08:20:13;11.05;;;4.97;;
27201;SDS011;14717;46.924;15.474;2024-02-15T08:22:40;15.48;;;4.40;;
27201;SDS011;14717;46.924;15.474;2024-02-15T08:27:34;11.23;;;4.50;;
27201;SDS011;14717;46.924;15.474;2024-02-15T08:30:05;8.82;;;4.35;;
27201;SDS011;14717;46.924;15.474;2024-02-15T08:32:34;7.63;;;4.15;;
27201;SDS011;14717;46.924;15.474;2024-02-15T08:35:00;11.50;;;4.13;;
27201;SDS011;14717;46.924;15.474;2024-02-15T08:37:25;8.13;;;3.30;;
27201;SDS011;14717;46.924;15.474;2024-02-15T08:39:51;7.78;;;3.22;;
27201;SDS011;14717;46.924;15.474;2024-02-15T08:42:17;6.75;;;3.35;;
27201;SDS011;14717;46.924;15.474;2024-02-15T08:44:47;7.38;;;3.45;;
27201;SDS011;14717;46.924;15.474;2024-02-15T08:47:13;6.53;;;3.95;;
27201;SDS011;14717;46.924;15.474;2024-02-15T08:49:38;9.68;;;3.67;;
27201;SDS011;14717;46.924;15.474;2024-02-15T08:52:05;7.78;;;3.58;;
27201;SDS011;14717;46.924;15.474;2024-02-15T08:54:32;8.05;;;3.63;;
27201;SDS011;14717;46.924;15.474;2024-02-15T08:56:58;7.47;;;3.45;;
27201;SDS011;14717;46.924;15.474;2024-02-15T08:59:23;10.23;;;4.70;;
27201;SDS011;14717;46.924;15.474;2024-02-15T09:01:50;11.60;;;3.90;;
27201;SDS011;14717;46.924;15.474;2024-02-15T09:04:16;9.10;;;4.10;;
27201;SDS011;14717;46.924;15.474;2024-02-15T09:06:41;10.77;;;4.75;;
27201;SDS011;14717;46.924;15.474;2024-02-15T09:09:08;12.45;;;5.95;;
27201;SDS011;14717;46.924;15.474;2024-02-15T09:11:33;10.80;;;4.82;;
27201;SDS011;14717;46.924;15.474;2024-02-15T09:13:59;9.18;;;4.40;;
27201;SDS011;14717;46.924;15.474;2024-02-15T09:16:25;10.18;;;4.47;;
27201;SDS011;14717;46.924;15.474;2024-02-15T09:18:50;7.63;;;4.03;;
27201;SDS011;14717;46.924;15.474;2024-02-15T09:21:16;7.35;;;3.70;;
27201;SDS011;14717;46.924;15.474;2024-02-15T09:23:41;5.82;;;3.30;;
27201;SDS011;14717;46.924;15.474;2024-02-15T09:26:06;6.65;;;3.10;;
27201;SDS011;14717;46.924;15.474;2024-02-15T09:28:35;6.95;;;2.83;;
27201;SDS011;14717;46.924;15.474;2024-02-15T09:31:00;6.82;;;2.60;;
27201;SDS011;14717;46.924;15.474;2024-02-15T09:33:26;4.78;;;2.33;;
27201;SDS011;14717;46.924;15.474;2024-02-15T09:35:52;4.72;;;2.30;;
27201;SDS011;14717;46.924;15.474;2024-02-15T09:38:20;5.60;;;2.42;;
27201;SDS011;14717;46.924;15.474;2024-02-15T09:40:48;6.03;;;2.75;;
27201;SDS011;14717;46.924;15.474;2024-02-15T09:43:14;6.07;;;2.88;;
27201;SDS011;14717;46.924;15.474;2024-02-15T09:45:41;7.18;;;2.55;;
27201;SDS011;14717;46.924;15.474;2024-02-15T09:48:06;8.10;;;3.38;;
27201;SDS011;14717;46.924;15.474;2024-02-15T09:50:35;7.35;;;3.10;;
27201;SDS011;14717;46.924;15.474;2024-02-15T09:53:05;5.47;;;2.80;;
27201;SDS011;14717;46.924;15.474;2024-02-15T09:55:33;5.60;;;2.22;;
27201;SDS011;14717;46.924;15.474;2024-02-15T09:58:00;5.03;;;2.30;;
27201;SDS011;14717;46.924;15.474;2024-02-15T10:00:26;5.50;;;2.58;;
27201;SDS011;14717;46.924;15.474;2024-02-15T10:02:52;4.15;;;1.98;;
27201;SDS011;14717;46.924;15.474;2024-02-15T10:05:18;3.17;;;1.73;;
27201;SDS011;14717;46.924;15.474;2024-02-15T10:07:44;5.70;;;2.25;;
27201;SDS011;14717;46.924;15.474;2024-02-15T10:10:28;3.30;;;2.25;;
27201;SDS011;14717;46.924;15.474;2024-02-15T10:12:54;9.65;;;1.85;;
27201;SDS011;14717;46.924;15.474;2024-02-15T10:15:30;4.85;;;2.00;;
27201;SDS011;14717;46.924;15.474;2024-02-15T10:17:57;5.47;;;2.00;;
27201;SDS011;14717;46.924;15.474;2024-02-15T10:20:24;4.32;;;1.88;;
27201;SDS011;14717;46.924;15.474;2024-02-15T10:22:53;3.75;;;1.75;;
27201;SDS011;14717;46.924;15.474;2024-02-15T10:25:37;3.17;;;1.58;;
27201;SDS011;14717;46.924;15.474;2024-02-15T10:28:06;2.60;;;1.38;;
27201;SDS011;14717;46.924;15.474;2024-02-15T10:30:37;3.38;;;1.77;;
27201;SDS011;14717;46.924;15.474;2024-02-15T10:33:04;5.25;;;1.90;;
27201;SDS011;14717;46.924;15.474;2024-02-15T10:35:31;7.03;;;2.08;;
27201;SDS011;14717;46.924;15.474;2024-02-15T10:38:09;4.65;;;2.10;;
27201;SDS011;14717;46.924;15.474;2024-02-15T10:40:36;4.70;;;1.50;;
27201;SDS011;14717;46.924;15.474;2024-02-15T10:43:03;4.60;;;2.13;;
27201;SDS011;14717;46.924;15.474;2024-02-15T10:45:32;3.15;;;1.63;;
27201;SDS011;14717;46.924;15.474;2024-02-15T10:48:01;3.85;;;1.60;;
27201;SDS011;14717;46.924;15.474;2024-02-15T10:50:30;3.80;;;1.80;;
27201;SDS011;14717;46.924;15.474;2024-02-15T10:52:58;4.80;;;2.05;;
27201;SDS011;14717;46.924;15.474;2024-02-15T10:58:21;3.08;;;1.73;;
27201;SDS011;14717;46.924;15.474;2024-02-15T11:00:57;2.80;;;1.55;;
27201;SDS011;14717;46.924;15.474;2024-02-15T11:03:30;3.63;;;1.83;;
27201;SDS011;14717;46.924;15.474;2024-02-15T11:06:01;7.15;;;3.20;;
27201;SDS011;14717;46.924;15.474;2024-02-15T11:08:27;2.25;;;1.35;;
27201;SDS011;14717;46.924;15.474;2024-02-15T11:10:53;2.78;;;1.25;;
27201;SDS011;14717;46.924;15.474;2024-02-15T11:13:23;4.15;;;1.60;;
27201;SDS011;14717;46.924;15.474;2024-02-15T11:15:49;3.58;;;1.98;;
27201;SDS011;14717;46.924;15.474;2024-02-15T11:21:11;3.53;;;1.85;;
27201;SDS011;14717;46.924;15.474;2024-02-15T11:23:37;3.15;;;1.58;;
27201;SDS011;14717;46.924;15.474;2024-02-15T11:26:03;3.55;;;1.65;;
27201;SDS011;14717;46.924;15.474;2024-02-15T11:30:55;3.43;;;2.10;;
27201;SDS011;14717;46.924;15.474;2024-02-15T11:38:32;5.65;;;2.20;;
27201;SDS011;14717;46.924;15.474;2024-02-15T11:41:00;4.82;;;2.13;;
27201;SDS011;14717;46.924;15.474;2024-02-15T11:46:08;3.38;;;1.58;;
27201;SDS011;14717;46.924;15.474;2024-02-15T11:48:38;2.97;;;1.58;;
27201;SDS011;14717;46.924;15.474;2024-02-15T11:51:04;2.40;;;1.30;;
27201;SDS011;14717;46.924;15.474;2024-02-15T11:53:31;2.65;;;1.40;;
27201;SDS011;14717;46.924;15.474;2024-02-15T11:56:01;5.60;;;1.50;;
27201;SDS011;14717;46.924;15.474;2024-02-15T11:58:33;3.08;;;1.70;;
27201;SDS011;14717;46.924;15.474;2024-02-15T12:01:11;4.03;;;1.48;;
27201;SDS011;14717;46.924;15.474;2024-02-15T12:03:55;3.97;;;1.60;;
27201;SDS011;14717;46.924;15.474;2024-02-15T12:06:40;2.72;;;1.50;;
27201;SDS011;14717;46.924;15.474;2024-02-15T12:09:24;3.45;;;1.63;;
27201;SDS011;14717;46.924;15.474;2024-02-15T12:12:11;3.70;;;1.80;;
27201;SDS011;14717;46.924;15.474;2024-02-15T12:15:02;3.33;;;1.80;;
27201;SDS011;14717;46.924;15.474;2024-02-15T12:17:47;4.07;;;1.88;;
27201;SDS011;14717;46.924;15.474;2024-02-15T12:20:31;3.53;;;1.40;;
27201;SDS011;14717;46.924;15.474;2024-02-15T12:22:57;6.15;;;1.95;;
27201;SDS011;14717;46.924;15.474;2024-02-15T12:25:26;3.97;;;2.10;;
27201;SDS011;14717;46.924;15.474;2024-02-15T12:27:59;4.95;;;1.80;;
27201;SDS011;14717;46.924;15.474;2024-02-15T12:30:25;4.18;;;1.75;;
27201;SDS011;14717;46.924;15.474;2024-02-15T12:33:08;3.55;;;2.10;;
27201;SDS011;14717;46.924;15.474;2024-02-15T12:35:35;4.63;;;1.90;;
27201;SDS011;14717;46.924;15.474;2024-02-15T12:38:01;4.07;;;1.85;;
27201;SDS011;14717;46.924;15.474;2024-02-15T12:40:33;4.07;;;1.90;;
27201;SDS011;14717;46.924;15.474;2024-02-15T12:43:04;5.10;;;1.85;;
27201;SDS011;14717;46.924;15.474;2024-02-15T12:45:30;5.03;;;1.95;;
27201;SDS011;14717;46.924;15.474;2024-02-15T12:47:57;3.75;;;1.60;;
27201;SDS011;14717;46.924;15.474;2024-02-15T12:50:24;3.38;;;1.38;;
27201;SDS011;14717;46.924;15.474;2024-02-15T12:52:53;2.97;;;1.38;;
27201;SDS011;14717;46.924;15.474;2024-02-15T12:55:21;2.72;;;1.50;;
27201;SDS011;14717;46.924;15.474;2024-02-15T12:57:52;3.63;;;1.42;;
27201;SDS011;14717;46.924;15.474;2024-02-15T13:00:21;3.05;;;1.35;;
27201;SDS011;14717;46.924;15.474;2024-02-15T13:02:49;3.33;;;1.60;;
27201;SDS011;14717;46.924;15.474;2024-02-15T13:05:18;3.60;;;1.48;;
27201;SDS011;14717;46.924;15.474;2024-02-15T13:07:48;4.43;;;1.67;;
27201;SDS011;14717;46.924;15.474;2024-02-15T13:10:17;4.30;;;1.60;;
27201;SDS011;14717;46.924;15.474;2024-02-15T13:12:42;5.10;;;1.88;;
27201;SDS011;14717;46.924;15.474;2024-02-15T13:15:10;3.10;;;1.70;;
27201;SDS011;14717;46.924;15.474;2024-02-15T13:17:52;3.17;;;1.85;;
27201;SDS011;14717;46.924;15.474;2024-02-15T13:20:19;4.30;;;2.00;;
27201;SDS011;14717;46.924;15.474;2024-02-15T13:22:45;5.15;;;2.00;;
27201;SDS011;14717;46.924;15.474;2024-02-15T13:25:13;4.43;;;1.70;;
27201;SDS011;14717;46.924;15.474;2024-02-15T13:27:41;5.47;;;2.05;;
27201;SDS011;14717;46.924;15.474;2024-02-15T13:30:08;6.05;;;2.13;;
27201;SDS011;14717;46.924;15.474;2024-02-15T13:32:35;4.00;;;2.00;;
27201;SDS011;14717;46.924;15.474;2024-02-15T13:35:06;4.43;;;2.30;;
27201;SDS011;14717;46.924;15.474;2024-02-15T13:37:47;3.83;;;1.88;;
27201;SDS011;14717;46.924;15.474;2024-02-15T13:40:13;2.95;;;1.45;;
27201;SDS011;14717;46.924;15.474;2024-02-15T13:42:45;4.55;;;1.80;;
27201;SDS011;14717;46.924;15.474;2024-02-15T13:47:52;3.17;;;1.70;;
27201;SDS011;14717;46.924;15.474;2024-02-15T13:50:18;3.38;;;2.10;;
27201;SDS011;14717;46.924;15.474;2024-02-15T13:55:10;3.97;;;2.03;;
27201;SDS011;14717;46.924;15.474;2024-02-15T13:57:38;5.35;;;2.92;;
27201;SDS011;14717;46.924;15.474;2024-02-15T14:00:04;5.20;;;2.00;;
27201;SDS011;14717;46.924;15.474;2024-02-15T14:02:31;4.10;;;1.73;;
27201;SDS011;14717;46.924;15.474;2024-02-15T14:04:56;4.72;;;1.75;;
27201;SDS011;14717;46.924;15.474;2024-02-15T14:09:47;3.83;;;2.20;;
27201;SDS011;14717;46.924;15.474;2024-02-15T14:12:12;4.28;;;1.95;;
27201;SDS011;14717;46.924;15.474;2024-02-15T14:14:39;3.30;;;1.83;;
27201;SDS011;14717;46.924;15.474;2024-02-15T14:17:05;3.58;;;2.17;;
27201;SDS011;14717;46.924;15.474;2024-02-15T14:19:30;2.92;;;1.90;;
27201;SDS011;14717;46.924;15.474;2024-02-15T14:21:56;6.75;;;2.20;;
27201;SDS011;14717;46.924;15.474;2024-02-15T14:24:21;4.68;;;2.08;;
27201;SDS011;14717;46.924;15.474;2024-02-15T14:29:13;3.80;;;2.13;;
27201;SDS011;14717;46.924;15.474;2024-02-15T14:34:23;5.22;;;2.35;;
27201;SDS011;14717;46.924;15.474;2024-02-15T14:36:50;3.70;;;2.05;;
27201;SDS011;14717;46.924;15.474;2024-02-15T14:41:42;4.55;;;2.33;;
27201;SDS011;14717;46.924;15.474;2024-02-15T14:44:08;4.70;;;2.40;;
27201;SDS011;14717;46.924;15.474;2024-02-15T14:46:34;3.50;;;2.00;;
27201;SDS011;14717;46.924;15.474;2024-02-15T14:51:26;4.35;;;2.42;;
27201;SDS011;14717;46.924;15.474;2024-02-15T14:53:51;7.82;;;3.28;;
27201;SDS011;14717;46.924;15.474;2024-02-15T14:56:16;6.20;;;2.42;;
27201;SDS011;14717;46.924;15.474;2024-02-15T15:01:08;4.90;;;2.05;;
27201;SDS011;14717;46.924;15.474;2024-02-15T15:05:58;5.40;;;2.28;;
27201;SDS011;14717;46.924;15.474;2024-02-15T15:08:42;4.35;;;2.00;;
27201;SDS011;14717;46.924;15.474;2024-02-15T15:11:26;4.55;;;2.55;;
27201;SDS011;14717;46.924;15.474;2024-02-15T15:14:10;5.03;;;2.28;;
27201;SDS011;14717;46.924;15.474;2024-02-15T15:19:00;4.03;;;2.17;;
27201;SDS011;14717;46.924;15.474;2024-02-15T15:23:52;6.85;;;2.33;;